createdAt,value
2018-07-16T00:00:58.198Z,3.39
2018-07-16T00:10:53.882Z,3.39
2018-07-16T00:20:49.289Z,3.39
2018-07-16T00:30:47.608Z,3.39
2018-07-16T00:40:44.879Z,3.39
2018-07-16T00:50:39.819Z,3.38
2018-07-16T01:00:37.838Z,3.38
2018-07-16T01:10:35.604Z,3.38
2018-07-16T01:20:31.222Z,3.38
2018-07-16T01:30:30.048Z,3.38
2018-07-16T01:40:26.803Z,3.38
2018-07-16T01:50:25.455Z,3.38
2018-07-16T02:00:24.324Z,3.38
2018-07-16T02:10:22.435Z,3.37
2018-07-16T02:20:17.548Z,3.37
2018-07-16T02:30:16.004Z,3.37
2018-07-16T02:40:14.001Z,3.37
2018-07-16T02:50:09.010Z,3.37
2018-07-16T03:00:06.721Z,3.37
2018-07-16T03:10:04.185Z,3.37
2018-07-16T03:20:01.514Z,3.37
2018-07-16T03:29:59.603Z,3.37
2018-07-16T03:39:55.540Z,3.37
2018-07-16T03:49:53.275Z,3.37
2018-07-16T03:59:51.450Z,3.38
2018-07-16T04:09:48.376Z,3.39
2018-07-16T04:19:46.274Z,3.39
2018-07-16T04:29:44.125Z,3.40
2018-07-16T04:39:42.698Z,3.41
2018-07-16T04:49:38.032Z,3.42
2018-07-16T04:59:35.973Z,3.42
2018-07-16T05:09:32.280Z,3.43
2018-07-16T05:19:24.442Z,3.44
2018-07-16T05:29:23.038Z,3.42
2018-07-16T05:39:22.415Z,3.42
2018-07-16T05:49:20.068Z,3.42
2018-07-16T05:59:19.338Z,3.42
2018-07-16T06:09:16.573Z,3.42
2018-07-16T06:19:15.922Z,3.42
2018-07-16T06:29:12.315Z,3.43
2018-07-16T06:39:11.221Z,3.43
2018-07-16T06:49:10.822Z,3.42
2018-07-16T06:59:10.422Z,3.42
2018-07-16T07:09:08.014Z,3.43
2018-07-16T07:19:03.770Z,3.42
2018-07-16T07:29:03.446Z,3.42
2018-07-16T07:39:02.999Z,3.42
2018-07-16T07:49:01.068Z,3.42
2018-07-16T07:58:57.998Z,3.43
2018-07-16T08:08:55.081Z,3.43
2018-07-16T08:18:54.495Z,3.42
2018-07-16T08:28:50.785Z,3.42
2018-07-16T08:38:46.024Z,3.42
2018-07-16T08:48:43.825Z,3.42
2018-07-16T08:58:42.283Z,3.42
2018-07-16T09:08:40.230Z,3.42
2018-07-16T09:18:37.246Z,3.42
2018-07-16T09:28:35.171Z,3.42
2018-07-16T09:38:32.947Z,3.42
2018-07-16T09:48:30.768Z,3.42
2018-07-16T09:58:29.513Z,3.42
2018-07-16T10:08:25.220Z,3.42
2018-07-16T10:18:24.089Z,3.42
2018-07-16T10:28:21.967Z,3.41
2018-07-16T10:38:19.499Z,3.41
2018-07-16T10:48:17.660Z,3.41
2018-07-16T10:58:16.136Z,3.41
2018-07-16T11:08:08.767Z,3.42
2018-07-16T11:18:03.963Z,3.42
2018-07-16T11:28:00.383Z,3.42
2018-07-16T11:37:58.948Z,3.42
2018-07-16T11:47:55.749Z,3.42
2018-07-16T11:57:53.110Z,3.42
2018-07-16T12:07:50.743Z,3.42
2018-07-16T12:17:51.933Z,3.42
2018-07-16T12:27:47.078Z,3.42
2018-07-16T12:37:45.816Z,3.42
2018-07-16T12:47:42.577Z,3.41
2018-07-16T12:57:40.231Z,3.41
2018-07-16T13:07:38.103Z,3.41
2018-07-16T13:17:35.861Z,3.41
2018-07-16T13:27:35.079Z,3.41
2018-07-16T13:37:29.867Z,3.41
2018-07-16T13:47:23.969Z,3.40
2018-07-16T13:57:18.298Z,3.44
2018-07-16T14:07:12.965Z,3.45
2018-07-16T14:17:08.819Z,3.46
2018-07-16T14:27:06.159Z,3.46
2018-07-16T14:37:03.951Z,3.44
2018-07-16T14:47:00.537Z,3.43
2018-07-16T14:56:57.521Z,3.43
2018-07-16T15:06:55.050Z,3.43
2018-07-16T15:16:51.937Z,3.42
2018-07-16T15:26:48.539Z,3.42
2018-07-16T15:36:46.239Z,3.42
2018-07-16T15:46:43.270Z,3.42
2018-07-16T15:56:39.152Z,3.44
2018-07-16T16:06:36.303Z,3.43
2018-07-16T16:16:34.471Z,3.43
2018-07-16T16:26:31.570Z,3.42
2018-07-16T16:36:29.906Z,3.42
2018-07-16T16:46:24.382Z,3.42
2018-07-16T16:56:13.869Z,3.42
2018-07-16T17:06:09.064Z,3.42
2018-07-16T17:16:05.612Z,3.42
2018-07-16T17:26:00.216Z,3.44
2018-07-16T17:35:57.930Z,3.44
2018-07-16T17:45:54.845Z,3.44
2018-07-16T17:55:50.735Z,3.44
2018-07-16T18:05:40.380Z,3.43
2018-07-16T18:15:34.461Z,3.43
2018-07-16T18:25:24.055Z,3.43
2018-07-16T18:35:21.261Z,3.42
2018-07-16T18:45:17.169Z,3.42
2018-07-16T18:55:12.136Z,3.42
2018-07-16T19:05:04.449Z,3.42
2018-07-16T19:14:55.398Z,3.42
2018-07-16T19:24:48.131Z,3.41
2018-07-16T19:34:43.137Z,3.41
2018-07-16T19:44:40.378Z,3.41
2018-07-16T19:54:35.999Z,3.41
2018-07-16T20:04:32.839Z,3.41
2018-07-16T20:14:30.615Z,3.40
2018-07-16T20:24:27.323Z,3.40
2018-07-16T20:34:21.733Z,3.40
2018-07-16T20:44:19.407Z,3.40
2018-07-16T20:54:17.739Z,3.40
2018-07-16T21:04:15.022Z,3.40
2018-07-16T21:14:10.497Z,3.40
2018-07-16T21:24:07.709Z,3.40
2018-07-16T21:34:04.057Z,3.40
2018-07-16T21:44:01.861Z,3.39
2018-07-16T21:53:56.732Z,3.39
2018-07-16T22:03:54.824Z,3.39
2018-07-16T22:13:51.668Z,3.39
2018-07-16T22:23:46.949Z,3.39
2018-07-16T22:33:44.317Z,3.39
2018-07-16T22:43:41.077Z,3.39
2018-07-16T22:53:37.978Z,3.39
2018-07-16T23:03:32.339Z,3.39
2018-07-16T23:13:28.651Z,3.39
2018-07-16T23:23:24.758Z,3.39
2018-07-16T23:33:21.578Z,3.38
2018-07-16T23:43:20.898Z,3.39
2018-07-16T23:53:16.846Z,3.39
